sensor_id;sensor_type;location;lat;lon;timestamp;P1;durP1;ratioP1;P2;durP2;ratioP2
34144;SDS011;69555;53.014;8.886;2024-02-23T00:00:10;1.83;;;0.63;;
34144;SDS011;69555;53.014;8.886;2024-02-23T00:02:37;4.55;;;0.47;;
34144;SDS011;69555;53.014;8.886;2024-02-23T00:05:03;3.15;;;0.50;;
34144;SDS011;69555;53.014;8.886;2024-02-23T00:07:29;2.38;;;0.73;;
34144;SDS011;69555;53.014;8.886;2024-02-23T00:09:54;1.35;;;0.85;;
34144;SDS011;69555;53.014;8.886;2024-02-23T00:12:21;1.95;;;0.80;;
34144;SDS011;69555;53.014;8.886;2024-02-23T00:14:46;1.85;;;0.90;;
34144;SDS011;69555;53.014;8.886;2024-02-23T00:17:12;5.53;;;0.70;;
34144;SDS011;69555;53.014;8.886;2024-02-23T00:19:37;6.30;;;0.77;;
34144;SDS011;69555;53.014;8.886;2024-02-23T00:22:03;2.70;;;0.20;;
34144;SDS011;69555;53.014;8.886;2024-02-23T00:24:29;3.72;;;0.73;;
34144;SDS011;69555;53.014;8.886;2024-02-23T00:26:56;0.40;;;0.35;;
34144;SDS011;69555;53.014;8.886;2024-02-23T00:29:22;0.82;;;0.47;;
34144;SDS011;69555;53.014;8.886;2024-02-23T00:31:49;0.40;;;0.40;;
34144;SDS011;69555;53.014;8.886;2024-02-23T00:34:15;8.25;;;0.40;;
34144;SDS011;69555;53.014;8.886;2024-02-23T00:36:42;0.60;;;0.50;;
34144;SDS011;69555;53.014;8.886;2024-02-23T00:39:11;0.77;;;0.52;;
34144;SDS011;69555;53.014;8.886;2024-02-23T00:41:37;1.73;;;0.60;;
34144;SDS011;69555;53.014;8.886;2024-02-23T00:44:04;0.47;;;0.32;;
34144;SDS011;69555;53.014;8.886;2024-02-23T00:46:30;1.45;;;1.20;;
34144;SDS011;69555;53.014;8.886;2024-02-23T00:48:56;0.80;;;0.60;;
34144;SDS011;69555;53.014;8.886;2024-02-23T00:51:22;0.32;;;0.32;;
34144;SDS011;69555;53.014;8.886;2024-02-23T00:53:49;0.50;;;0.50;;
34144;SDS011;69555;53.014;8.886;2024-02-23T00:56:14;0.73;;;0.50;;
34144;SDS011;69555;53.014;8.886;2024-02-23T00:58:41;2.88;;;0.90;;
34144;SDS011;69555;53.014;8.886;2024-02-23T01:01:07;0.52;;;0.52;;
34144;SDS011;69555;53.014;8.886;2024-02-23T01:03:33;0.52;;;0.30;;
34144;SDS011;69555;53.014;8.886;2024-02-23T01:05:58;0.60;;;0.43;;
34144;SDS011;69555;53.014;8.886;2024-02-23T01:08:24;0.40;;;0.38;;
34144;SDS011;69555;53.014;8.886;2024-02-23T01:10:50;0.43;;;0.43;;
34144;SDS011;69555;53.014;8.886;2024-02-23T01:13:17;2.92;;;1.10;;
34144;SDS011;69555;53.014;8.886;2024-02-23T01:15:42;1.33;;;0.40;;
34144;SDS011;69555;53.014;8.886;2024-02-23T01:18:08;2.63;;;0.35;;
34144;SDS011;69555;53.014;8.886;2024-02-23T01:20:33;0.15;;;0.15;;
34144;SDS011;69555;53.014;8.886;2024-02-23T01:22:59;0.40;;;0.22;;
34144;SDS011;69555;53.014;8.886;2024-02-23T01:25:26;0.52;;;0.35;;
34144;SDS011;69555;53.014;8.886;2024-02-23T01:27:52;0.10;;;0.10;;
34144;SDS011;69555;53.014;8.886;2024-02-23T01:30:19;0.10;;;0.10;;
34144;SDS011;69555;53.014;8.886;2024-02-23T01:32:45;1.65;;;0.20;;
34144;SDS011;69555;53.014;8.886;2024-02-23T01:35:11;0.10;;;0.10;;
34144;SDS011;69555;53.014;8.886;2024-02-23T01:37:36;2.75;;;0.32;;
34144;SDS011;69555;53.014;8.886;2024-02-23T01:40:02;0.38;;;0.13;;
34144;SDS011;69555;53.014;8.886;2024-02-23T01:42:29;1.38;;;0.20;;
34144;SDS011;69555;53.014;8.886;2024-02-23T01:44:54;0.10;;;0.10;;
34144;SDS011;69555;53.014;8.886;2024-02-23T01:47:23;0.10;;;0.10;;
34144;SDS011;69555;53.014;8.886;2024-02-23T01:49:49;0.10;;;0.10;;
34144;SDS011;69555;53.014;8.886;2024-02-23T01:52:17;1.23;;;0.10;;
34144;SDS011;69555;53.014;8.886;2024-02-23T01:54:45;0.55;;;0.22;;
34144;SDS011;69555;53.014;8.886;2024-02-23T01:57:11;0.43;;;0.30;;
34144;SDS011;69555;53.014;8.886;2024-02-23T01:59:38;0.00;;;0.00;;
34144;SDS011;69555;53.014;8.886;2024-02-23T02:02:06;0.50;;;0.15;;
34144;SDS011;69555;53.014;8.886;2024-02-23T02:04:31;0.30;;;0.28;;
34144;SDS011;69555;53.014;8.886;2024-02-23T02:06:57;0.10;;;0.10;;
34144;SDS011;69555;53.014;8.886;2024-02-23T02:09:24;1.80;;;0.20;;
34144;SDS011;69555;53.014;8.886;2024-02-23T02:11:50;1.10;;;0.20;;
34144;SDS011;69555;53.014;8.886;2024-02-23T02:14:16;3.22;;;0.20;;
34144;SDS011;69555;53.014;8.886;2024-02-23T02:16:43;0.63;;;0.10;;
34144;SDS011;69555;53.014;8.886;2024-02-23T02:19:10;0.10;;;0.10;;
34144;SDS011;69555;53.014;8.886;2024-02-23T02:21:36;0.20;;;0.20;;
34144;SDS011;69555;53.014;8.886;2024-02-23T02:24:02;0.40;;;0.40;;
34144;SDS011;69555;53.014;8.886;2024-02-23T02:26:28;0.30;;;0.30;;
34144;SDS011;69555;53.014;8.886;2024-02-23T02:28:53;0.70;;;0.70;;
34144;SDS011;69555;53.014;8.886;2024-02-23T02:31:19;1.27;;;0.60;;
34144;SDS011;69555;53.014;8.886;2024-02-23T02:33:46;0.50;;;0.50;;
34144;SDS011;69555;53.014;8.886;2024-02-23T02:36:12;0.77;;;0.68;;
34144;SDS011;69555;53.014;8.886;2024-02-23T02:38:39;0.30;;;0.30;;
34144;SDS011;69555;53.014;8.886;2024-02-23T02:41:04;1.75;;;0.80;;
34144;SDS011;69555;53.014;8.886;2024-02-23T02:43:30;0.60;;;0.38;;
34144;SDS011;69555;53.014;8.886;2024-02-23T02:45:56;0.60;;;0.50;;
34144;SDS011;69555;53.014;8.886;2024-02-23T02:48:22;0.50;;;0.50;;
34144;SDS011;69555;53.014;8.886;2024-02-23T02:50:50;0.55;;;0.50;;
34144;SDS011;69555;53.014;8.886;2024-02-23T02:53:17;1.42;;;0.80;;
34144;SDS011;69555;53.014;8.886;2024-02-23T02:55:43;0.90;;;0.57;;
34144;SDS011;69555;53.014;8.886;2024-02-23T02:58:10;1.15;;;0.63;;
34144;SDS011;69555;53.014;8.886;2024-02-23T03:00:36;0.63;;;0.47;;
34144;SDS011;69555;53.014;8.886;2024-02-23T03:03:01;1.27;;;0.88;;
34144;SDS011;69555;53.014;8.886;2024-02-23T03:05:27;1.02;;;0.95;;
34144;SDS011;69555;53.014;8.886;2024-02-23T03:07:54;1.05;;;0.60;;
34144;SDS011;69555;53.014;8.886;2024-02-23T03:10:20;2.60;;;0.63;;
34144;SDS011;69555;53.014;8.886;2024-02-23T03:12:46;0.47;;;0.47;;
34144;SDS011;69555;53.014;8.886;2024-02-23T03:15:11;1.58;;;0.60;;
34144;SDS011;69555;53.014;8.886;2024-02-23T03:17:37;2.08;;;0.50;;
34144;SDS011;69555;53.014;8.886;2024-02-23T03:20:02;1.00;;;0.60;;
34144;SDS011;69555;53.014;8.886;2024-02-23T03:22:35;2.47;;;0.73;;
34144;SDS011;69555;53.014;8.886;2024-02-23T03:25:02;6.05;;;0.80;;
34144;SDS011;69555;53.014;8.886;2024-02-23T03:27:35;3.42;;;0.93;;
34144;SDS011;69555;53.014;8.886;2024-02-23T03:30:02;3.70;;;0.82;;
34144;SDS011;69555;53.014;8.886;2024-02-23T03:32:30;3.60;;;1.00;;
34144;SDS011;69555;53.014;8.886;2024-02-23T03:35:02;3.33;;;1.13;;
34144;SDS011;69555;53.014;8.886;2024-02-23T03:37:29;6.60;;;1.27;;
34144;SDS011;69555;53.014;8.886;2024-02-23T03:39:54;0.85;;;0.77;;
34144;SDS011;69555;53.014;8.886;2024-02-23T03:42:20;2.03;;;1.58;;
34144;SDS011;69555;53.014;8.886;2024-02-23T03:44:46;11.07;;;1.65;;
34144;SDS011;69555;53.014;8.886;2024-02-23T03:47:13;4.25;;;1.45;;
34144;SDS011;69555;53.014;8.886;2024-02-23T03:49:38;3.80;;;1.73;;
34144;SDS011;69555;53.014;8.886;2024-02-23T03:52:05;2.33;;;2.10;;
34144;SDS011;69555;53.014;8.886;2024-02-23T03:54:32;4.22;;;2.03;;
34144;SDS011;69555;53.014;8.886;2024-02-23T03:56:57;1.95;;;1.80;;
34144;SDS011;69555;53.014;8.886;2024-02-23T03:59:25;5.18;;;2.25;;
34144;SDS011;69555;53.014;8.886;2024-02-23T04:01:52;7.22;;;2.75;;
34144;SDS011;69555;53.014;8.886;2024-02-23T04:04:18;5.50;;;2.53;;
34144;SDS011;69555;53.014;8.886;2024-02-23T04:06:44;2.50;;;2.03;;
34144;SDS011;69555;53.014;8.886;2024-02-23T04:09:09;3.75;;;1.92;;
34144;SDS011;69555;53.014;8.886;2024-02-23T04:11:36;3.10;;;1.73;;
34144;SDS011;69555;53.014;8.886;2024-02-23T04:14:03;3.55;;;1.90;;
34144;SDS011;69555;53.014;8.886;2024-02-23T04:16:31;7.68;;;2.35;;
34144;SDS011;69555;53.014;8.886;2024-02-23T04:18:58;2.58;;;1.70;;
34144;SDS011;69555;53.014;8.886;2024-02-23T04:21:25;8.10;;;2.08;;
34144;SDS011;69555;53.014;8.886;2024-02-23T04:23:53;4.45;;;2.25;;
34144;SDS011;69555;53.014;8.886;2024-02-23T04:26:18;5.22;;;1.75;;
34144;SDS011;69555;53.014;8.886;2024-02-23T04:28:43;5.55;;;2.47;;
34144;SDS011;69555;53.014;8.886;2024-02-23T04:31:09;1.92;;;1.33;;
34144;SDS011;69555;53.014;8.886;2024-02-23T04:33:36;3.88;;;1.60;;
34144;SDS011;69555;53.014;8.886;2024-02-23T04:36:04;1.75;;;0.93;;
34144;SDS011;69555;53.014;8.886;2024-02-23T04:38:31;2.03;;;1.20;;
34144;SDS011;69555;53.014;8.886;2024-02-23T04:40:57;4.53;;;1.30;;
34144;SDS011;69555;53.014;8.886;2024-02-23T04:43:23;2.97;;;1.02;;
34144;SDS011;69555;53.014;8.886;2024-02-23T04:45:50;5.82;;;0.98;;
34144;SDS011;69555;53.014;8.886;2024-02-23T04:48:17;3.97;;;1.25;;
34144;SDS011;69555;53.014;8.886;2024-02-23T04:50:43;3.67;;;0.65;;
34144;SDS011;69555;53.014;8.886;2024-02-23T04:53:09;0.47;;;0.47;;
34144;SDS011;69555;53.014;8.886;2024-02-23T04:55:34;1.77;;;0.73;;
34144;SDS011;69555;53.014;8.886;2024-02-23T04:58:00;2.88;;;0.93;;
34144;SDS011;69555;53.014;8.886;2024-02-23T05:00:26;2.55;;;0.57;;
34144;SDS011;69555;53.014;8.886;2024-02-23T05:02:59;1.50;;;0.77;;
34144;SDS011;69555;53.014;8.886;2024-02-23T05:05:29;1.38;;;0.60;;
34144;SDS011;69555;53.014;8.886;2024-02-23T05:07:55;2.75;;;0.50;;
34144;SDS011;69555;53.014;8.886;2024-02-23T05:10:21;2.70;;;0.75;;
34144;SDS011;69555;53.014;8.886;2024-02-23T05:12:47;0.80;;;0.50;;
34144;SDS011;69555;53.014;8.886;2024-02-23T05:15:14;0.80;;;0.63;;
34144;SDS011;69555;53.014;8.886;2024-02-23T05:17:41;1.73;;;0.90;;
34144;SDS011;69555;53.014;8.886;2024-02-23T05:20:08;1.13;;;0.88;;
34144;SDS011;69555;53.014;8.886;2024-02-23T05:22:37;2.05;;;1.20;;
34144;SDS011;69555;53.014;8.886;2024-02-23T05:25:03;3.50;;;1.10;;
34144;SDS011;69555;53.014;8.886;2024-02-23T05:27:30;1.55;;;1.25;;
34144;SDS011;69555;53.014;8.886;2024-02-23T05:29:56;3.25;;;1.27;;
34144;SDS011;69555;53.014;8.886;2024-02-23T05:32:22;2.35;;;1.23;;
34144;SDS011;69555;53.014;8.886;2024-02-23T05:34:47;4.95;;;2.20;;
34144;SDS011;69555;53.014;8.886;2024-02-23T05:37:16;3.78;;;1.65;;
34144;SDS011;69555;53.014;8.886;2024-02-23T05:39:42;2.75;;;1.52;;
34144;SDS011;69555;53.014;8.886;2024-02-23T05:42:07;5.40;;;2.50;;
34144;SDS011;69555;53.014;8.886;2024-02-23T05:44:34;7.60;;;2.63;;
34144;SDS011;69555;53.014;8.886;2024-02-23T05:46:59;8.68;;;3.38;;
34144;SDS011;69555;53.014;8.886;2024-02-23T05:49:24;4.80;;;2.53;;
34144;SDS011;69555;53.014;8.886;2024-02-23T05:51:51;6.47;;;2.72;;
34144;SDS011;69555;53.014;8.886;2024-02-23T05:54:17;4.40;;;2.35;;
34144;SDS011;69555;53.014;8.886;2024-02-23T05:56:43;13.13;;;2.88;;
34144;SDS011;69555;53.014;8.886;2024-02-23T05:59:10;5.03;;;2.88;;
34144;SDS011;69555;53.014;8.886;2024-02-23T06:01:37;4.90;;;2.38;;
34144;SDS011;69555;53.014;8.886;2024-02-23T06:04:04;6.65;;;2.80;;
34144;SDS011;69555;53.014;8.886;2024-02-23T06:06:31;5.97;;;2.25;;
34144;SDS011;69555;53.014;8.886;2024-02-23T06:08:58;7.50;;;2.85;;
34144;SDS011;69555;53.014;8.886;2024-02-23T06:11:23;8.25;;;2.45;;
34144;SDS011;69555;53.014;8.886;2024-02-23T06:13:50;10.60;;;3.00;;
34144;SDS011;69555;53.014;8.886;2024-02-23T06:16:17;8.35;;;2.05;;
34144;SDS011;69555;53.014;8.886;2024-02-23T06:18:43;14.43;;;3.42;;
34144;SDS011;69555;53.014;8.886;2024-02-23T06:21:15;12.75;;;2.50;;
34144;SDS011;69555;53.014;8.886;2024-02-23T06:23:44;8.25;;;1.92;;
34144;SDS011;69555;53.014;8.886;2024-02-23T06:26:11;6.65;;;2.17;;
34144;SDS011;69555;53.014;8.886;2024-02-23T06:28:36;4.88;;;2.25;;
34144;SDS011;69555;53.014;8.886;2024-02-23T06:31:05;4.38;;;1.77;;
34144;SDS011;69555;53.014;8.886;2024-02-23T06:33:33;8.05;;;2.20;;
34144;SDS011;69555;53.014;8.886;2024-02-23T06:36:00;10.07;;;2.47;;
34144;SDS011;69555;53.014;8.886;2024-02-23T06:38:27;8.43;;;2.13;;
34144;SDS011;69555;53.014;8.886;2024-02-23T06:40:54;10.73;;;2.75;;
34144;SDS011;69555;53.014;8.886;2024-02-23T06:43:22;7.80;;;1.45;;
34144;SDS011;69555;53.014;8.886;2024-02-23T06:45:49;6.72;;;1.85;;
34144;SDS011;69555;53.014;8.886;2024-02-23T06:48:14;5.05;;;1.92;;
34144;SDS011;69555;53.014;8.886;2024-02-23T06:50:41;5.25;;;1.55;;
34144;SDS011;69555;53.014;8.886;2024-02-23T06:53:07;9.30;;;2.15;;
34144;SDS011;69555;53.014;8.886;2024-02-23T06:55:36;8.18;;;2.05;;
34144;SDS011;69555;53.014;8.886;2024-02-23T07:00:28;7.88;;;1.92;;
34144;SDS011;69555;53.014;8.886;2024-02-23T07:02:53;5.85;;;1.88;;
34144;SDS011;69555;53.014;8.886;2024-02-23T07:05:19;10.57;;;2.35;;
34144;SDS011;69555;53.014;8.886;2024-02-23T07:07:44;6.03;;;1.33;;
34144;SDS011;69555;53.014;8.886;2024-02-23T07:10:11;2.67;;;1.45;;
34144;SDS011;69555;53.014;8.886;2024-02-23T07:12:37;4.40;;;2.38;;
34144;SDS011;69555;53.014;8.886;2024-02-23T07:15:03;4.07;;;1.45;;
34144;SDS011;69555;53.014;8.886;2024-02-23T07:17:31;7.20;;;1.80;;
34144;SDS011;69555;53.014;8.886;2024-02-23T07:19:57;2.97;;;2.08;;
34144;SDS011;69555;53.014;8.886;2024-02-23T07:22:30;10.13;;;1.70;;
34144;SDS011;69555;53.014;8.886;2024-02-23T07:24:57;8.88;;;2.55;;
34144;SDS011;69555;53.014;8.886;2024-02-23T07:27:22;7.60;;;1.77;;
34144;SDS011;69555;53.014;8.886;2024-02-23T07:29:49;6.82;;;1.52;;
34144;SDS011;69555;53.014;8.886;2024-02-23T07:32:14;5.68;;;1.83;;
34144;SDS011;69555;53.014;8.886;2024-02-23T07:34:40;6.97;;;1.52;;
34144;SDS011;69555;53.014;8.886;2024-02-23T07:37:06;7.93;;;1.98;;
34144;SDS011;69555;53.014;8.886;2024-02-23T07:39:32;9.43;;;2.22;;
34144;SDS011;69555;53.014;8.886;2024-02-23T07:41:58;4.88;;;1.65;;
34144;SDS011;69555;53.014;8.886;2024-02-23T07:44:25;7.18;;;1.70;;
34144;SDS011;69555;53.014;8.886;2024-02-23T07:46:51;5.72;;;1.92;;
34144;SDS011;69555;53.014;8.886;2024-02-23T07:49:19;8.25;;;1.75;;
34144;SDS011;69555;53.014;8.886;2024-02-23T07:51:46;6.05;;;1.27;;
34144;SDS011;69555;53.014;8.886;2024-02-23T07:54:13;5.78;;;1.80;;
34144;SDS011;69555;53.014;8.886;2024-02-23T07:56:39;6.18;;;1.23;;
34144;SDS011;69555;53.014;8.886;2024-02-23T07:59:06;4.18;;;1.33;;
34144;SDS011;69555;53.014;8.886;2024-02-23T08:01:33;8.02;;;1.58;;
34144;SDS011;69555;53.014;8.886;2024-02-23T08:04:00;3.65;;;1.52;;
34144;SDS011;69555;53.014;8.886;2024-02-23T08:06:26;9.02;;;1.35;;
34144;SDS011;69555;53.014;8.886;2024-02-23T08:08:51;6.65;;;2.13;;
34144;SDS011;69555;53.014;8.886;2024-02-23T08:11:18;4.15;;;1.63;;
34144;SDS011;69555;53.014;8.886;2024-02-23T08:13:45;10.68;;;1.75;;
34144;SDS011;69555;53.014;8.886;2024-02-23T08:16:11;3.45;;;1.35;;
34144;SDS011;69555;53.014;8.886;2024-02-23T08:18:37;7.40;;;1.67;;
34144;SDS011;69555;53.014;8.886;2024-02-23T08:21:04;4.30;;;1.40;;
34144;SDS011;69555;53.014;8.886;2024-02-23T08:23:32;4.18;;;1.40;;
34144;SDS011;69555;53.014;8.886;2024-02-23T08:25:57;7.15;;;1.30;;
34144;SDS011;69555;53.014;8.886;2024-02-23T08:28:25;9.35;;;1.50;;
34144;SDS011;69555;53.014;8.886;2024-02-23T08:30:50;5.55;;;1.35;;
34144;SDS011;69555;53.014;8.886;2024-02-23T08:33:15;4.88;;;1.40;;
34144;SDS011;69555;53.014;8.886;2024-02-23T08:35:41;8.18;;;1.63;;
34144;SDS011;69555;53.014;8.886;2024-02-23T08:38:06;5.93;;;1.67;;
34144;SDS011;69555;53.014;8.886;2024-02-23T08:40:32;4.25;;;1.45;;
34144;SDS011;69555;53.014;8.886;2024-02-23T08:42:57;7.15;;;1.90;;
34144;SDS011;69555;53.014;8.886;2024-02-23T08:45:24;4.57;;;1.30;;
34144;SDS011;69555;53.014;8.886;2024-02-23T08:47:49;5.05;;;1.48;;
34144;SDS011;69555;53.014;8.886;2024-02-23T08:50:15;7.32;;;1.85;;
34144;SDS011;69555;53.014;8.886;2024-02-23T08:52:42;5.57;;;1.77;;
34144;SDS011;69555;53.014;8.886;2024-02-23T08:55:08;8.18;;;1.73;;
34144;SDS011;69555;53.014;8.886;2024-02-23T08:57:34;12.45;;;2.95;;
34144;SDS011;69555;53.014;8.886;2024-02-23T08:59:59;6.18;;;1.60;;
34144;SDS011;69555;53.014;8.886;2024-02-23T09:02:24;8.70;;;2.08;;
34144;SDS011;69555;53.014;8.886;2024-02-23T09:04:50;8.00;;;2.17;;
34144;SDS011;69555;53.014;8.886;2024-02-23T09:07:16;12.80;;;1.88;;
34144;SDS011;69555;53.014;8.886;2024-02-23T09:09:44;12.27;;;1.90;;
34144;SDS011;69555;53.014;8.886;2024-02-23T09:12:11;6.03;;;1.83;;
34144;SDS011;69555;53.014;8.886;2024-02-23T09:14:39;10.48;;;1.50;;
34144;SDS011;69555;53.014;8.886;2024-02-23T09:17:06;7.32;;;1.77;;
34144;SDS011;69555;53.014;8.886;2024-02-23T09:19:33;5.00;;;1.38;;
34144;SDS011;69555;53.014;8.886;2024-02-23T09:21:59;4.90;;;1.85;;
34144;SDS011;69555;53.014;8.886;2024-02-23T09:24:25;9.13;;;1.92;;
34144;SDS011;69555;53.014;8.886;2024-02-23T09:26:51;3.42;;;1.33;;
34144;SDS011;69555;53.014;8.886;2024-02-23T09:29:17;10.30;;;2.00;;
34144;SDS011;69555;53.014;8.886;2024-02-23T09:31:43;11.55;;;2.08;;
34144;SDS011;69555;53.014;8.886;2024-02-23T09:34:08;8.85;;;2.05;;
34144;SDS011;69555;53.014;8.886;2024-02-23T09:36:33;5.35;;;1.40;;
34144;SDS011;69555;53.014;8.886;2024-02-23T09:38:59;6.78;;;1.65;;
34144;SDS011;69555;53.014;8.886;2024-02-23T09:41:26;10.20;;;1.67;;
34144;SDS011;69555;53.014;8.886;2024-02-23T09:43:53;4.95;;;1.42;;
34144;SDS011;69555;53.014;8.886;2024-02-23T09:46:24;7.13;;;1.58;;
34144;SDS011;69555;53.014;8.886;2024-02-23T09:48:51;10.52;;;2.45;;
34144;SDS011;69555;53.014;8.886;2024-02-23T09:51:18;12.15;;;1.83;;
34144;SDS011;69555;53.014;8.886;2024-02-23T09:53:47;5.88;;;1.35;;
34144;SDS011;69555;53.014;8.886;2024-02-23T09:56:14;5.40;;;1.80;;
34144;SDS011;69555;53.014;8.886;2024-02-23T09:58:43;6.55;;;1.38;;
34144;SDS011;69555;53.014;8.886;2024-02-23T10:01:09;10.00;;;1.48;;
34144;SDS011;69555;53.014;8.886;2024-02-23T10:03:36;6.32;;;1.20;;
34144;SDS011;69555;53.014;8.886;2024-02-23T10:06:03;4.72;;;1.20;;
34144;SDS011;69555;53.014;8.886;2024-02-23T10:08:29;6.53;;;1.75;;
34144;SDS011;69555;53.014;8.886;2024-02-23T10:10:55;3.63;;;1.02;;
34144;SDS011;69555;53.014;8.886;2024-02-23T10:13:27;7.63;;;1.42;;
34144;SDS011;69555;53.014;8.886;2024-02-23T10:15:54;6.20;;;1.15;;
34144;SDS011;69555;53.014;8.886;2024-02-23T10:18:20;8.02;;;2.45;;
34144;SDS011;69555;53.014;8.886;2024-02-23T10:20:49;5.93;;;1.52;;
34144;SDS011;69555;53.014;8.886;2024-02-23T10:25:40;10.90;;;1.67;;
34144;SDS011;69555;53.014;8.886;2024-02-23T10:28:06;6.57;;;1.50;;
34144;SDS011;69555;53.014;8.886;2024-02-23T10:30:33;12.05;;;1.83;;
34144;SDS011;69555;53.014;8.886;2024-02-23T10:33:01;7.53;;;0.93;;
34144;SDS011;69555;53.014;8.886;2024-02-23T10:35:27;7.13;;;1.40;;
34144;SDS011;69555;53.014;8.886;2024-02-23T10:37:55;5.28;;;1.25;;
34144;SDS011;69555;53.014;8.886;2024-02-23T10:40:21;3.88;;;1.05;;
34144;SDS011;69555;53.014;8.886;2024-02-23T10:42:48;4.20;;;0.93;;
34144;SDS011;69555;53.014;8.886;2024-02-23T10:45:20;7.97;;;2.17;;
34144;SDS011;69555;53.014;8.886;2024-02-23T10:47:53;4.50;;;1.13;;
34144;SDS011;69555;53.014;8.886;2024-02-23T10:50:20;8.20;;;1.40;;
34144;SDS011;69555;53.014;8.886;2024-02-23T10:52:48;6.50;;;1.20;;
34144;SDS011;69555;53.014;8.886;2024-02-23T10:55:16;4.03;;;1.40;;
34144;SDS011;69555;53.014;8.886;2024-02-23T10:57:43;8.57;;;1.73;;
34144;SDS011;69555;53.014;8.886;2024-02-23T11:00:09;3.40;;;0.90;;
34144;SDS011;69555;53.014;8.886;2024-02-23T11:02:41;7.85;;;1.75;;
34144;SDS011;69555;53.014;8.886;2024-02-23T11:05:10;10.30;;;1.20;;
34144;SDS011;69555;53.014;8.886;2024-02-23T11:07:40;3.60;;;1.10;;
34144;SDS011;69555;53.014;8.886;2024-02-23T11:10:06;4.95;;;1.15;;
34144;SDS011;69555;53.014;8.886;2024-02-23T11:12:34;4.65;;;0.82;;
34144;SDS011;69555;53.014;8.886;2024-02-23T11:15:00;5.88;;;1.58;;
34144;SDS011;69555;53.014;8.886;2024-02-23T11:17:35;3.25;;;0.65;;
34144;SDS011;69555;53.014;8.886;2024-02-23T11:20:04;0.93;;;0.85;;
34144;SDS011;69555;53.014;8.886;2024-02-23T11:22:32;3.40;;;0.95;;
34144;SDS011;69555;53.014;8.886;2024-02-23T11:25:00;4.95;;;0.95;;
34144;SDS011;69555;53.014;8.886;2024-02-23T11:27:30;5.97;;;1.20;;
34144;SDS011;69555;53.014;8.886;2024-02-23T11:30:03;1.75;;;0.82;;
34144;SDS011;69555;53.014;8.886;2024-02-23T11:32:41;2.38;;;1.27;;
34144;SDS011;69555;53.014;8.886;2024-02-23T11:35:10;1.38;;;0.85;;
34144;SDS011;69555;53.014;8.886;2024-02-23T11:37:52;2.40;;;0.85;;
34144;SDS011;69555;53.014;8.886;2024-02-23T11:40:28;2.60;;;0.90;;
34144;SDS011;69555;53.014;8.886;2024-02-23T11:42:57;2.45;;;0.95;;
34144;SDS011;69555;53.014;8.886;2024-02-23T11:45:25;2.35;;;1.08;;
34144;SDS011;69555;53.014;8.886;2024-02-23T11:47:51;4.50;;;0.80;;
34144;SDS011;69555;53.014;8.886;2024-02-23T11:50:18;7.22;;;1.60;;
34144;SDS011;69555;53.014;8.886;2024-02-23T11:52:46;4.30;;;1.13;;
34144;SDS011;69555;53.014;8.886;2024-02-23T11:55:12;3.63;;;1.13;;
34144;SDS011;69555;53.014;8.886;2024-02-23T11:57:44;4.03;;;0.82;;
34144;SDS011;69555;53.014;8.886;2024-02-23T12:00:10;4.13;;;0.98;;
34144;SDS011;69555;53.014;8.886;2024-02-23T12:02:36;3.22;;;0.80;;
34144;SDS011;69555;53.014;8.886;2024-02-23T12:05:03;4.70;;;0.90;;
34144;SDS011;69555;53.014;8.886;2024-02-23T12:07:32;4.65;;;1.10;;
34144;SDS011;69555;53.014;8.886;2024-02-23T12:09:59;5.68;;;1.05;;
34144;SDS011;69555;53.014;8.886;2024-02-23T12:12:25;4.40;;;1.13;;
34144;SDS011;69555;53.014;8.886;2024-02-23T12:14:51;7.57;;;0.95;;
34144;SDS011;69555;53.014;8.886;2024-02-23T12:17:16;7.72;;;1.00;;
34144;SDS011;69555;53.014;8.886;2024-02-23T12:19:42;3.53;;;0.95;;
34144;SDS011;69555;53.014;8.886;2024-02-23T12:22:09;1.38;;;0.57;;
34144;SDS011;69555;53.014;8.886;2024-02-23T12:24:38;11.52;;;1.10;;
34144;SDS011;69555;53.014;8.886;2024-02-23T12:27:06;4.05;;;1.00;;
34144;SDS011;69555;53.014;8.886;2024-02-23T12:29:32;10.93;;;1.65;;
34144;SDS011;69555;53.014;8.886;2024-02-23T12:32:04;2.63;;;1.00;;
34144;SDS011;69555;53.014;8.886;2024-02-23T12:34:30;3.85;;;0.98;;
34144;SDS011;69555;53.014;8.886;2024-02-23T12:36:56;2.50;;;0.90;;
34144;SDS011;69555;53.014;8.886;2024-02-23T12:39:22;4.97;;;0.88;;
34144;SDS011;69555;53.014;8.886;2024-02-23T12:41:47;8.40;;;1.23;;
34144;SDS011;69555;53.014;8.886;2024-02-23T12:44:13;3.00;;;0.90;;
34144;SDS011;69555;53.014;8.886;2024-02-23T12:46:39;11.70;;;1.88;;
34144;SDS011;69555;53.014;8.886;2024-02-23T12:49:05;8.85;;;2.85;;
34144;SDS011;69555;53.014;8.886;2024-02-23T12:51:31;4.20;;;1.02;;
34144;SDS011;69555;53.014;8.886;2024-02-23T12:53:59;4.60;;;0.98;;
34144;SDS011;69555;53.014;8.886;2024-02-23T12:56:25;3.95;;;1.08;;
34144;SDS011;69555;53.014;8.886;2024-02-23T12:58:52;3.72;;;0.75;;
34144;SDS011;69555;53.014;8.886;2024-02-23T13:01:20;2.92;;;0.90;;
34144;SDS011;69555;53.014;8.886;2024-02-23T13:03:47;3.78;;;1.10;;
34144;SDS011;69555;53.014;8.886;2024-02-23T13:06:14;5.18;;;1.42;;
34144;SDS011;69555;53.014;8.886;2024-02-23T13:08:41;4.88;;;1.10;;
34144;SDS011;69555;53.014;8.886;2024-02-23T13:11:08;3.78;;;0.85;;
34144;SDS011;69555;53.014;8.886;2024-02-23T13:13:35;5.50;;;0.80;;
34144;SDS011;69555;53.014;8.886;2024-02-23T13:16:02;2.78;;;0.63;;
34144;SDS011;69555;53.014;8.886;2024-02-23T13:18:29;5.68;;;1.08;;
34144;SDS011;69555;53.014;8.886;2024-02-23T13:20:54;5.15;;;1.30;;
34144;SDS011;69555;53.014;8.886;2024-02-23T13:23:19;3.67;;;0.98;;
34144;SDS011;69555;53.014;8.886;2024-02-23T13:25:46;6.15;;;0.98;;
34144;SDS011;69555;53.014;8.886;2024-02-23T13:28:13;5.75;;;1.33;;
34144;SDS011;69555;53.014;8.886;2024-02-23T13:30:40;3.30;;;0.85;;
34144;SDS011;69555;53.014;8.886;2024-02-23T13:33:06;2.17;;;0.88;;
34144;SDS011;69555;53.014;8.886;2024-02-23T13:35:34;8.50;;;1.50;;
34144;SDS011;69555;53.014;8.886;2024-02-23T13:38:00;4.82;;;0.98;;
34144;SDS011;69555;53.014;8.886;2024-02-23T13:40:29;1.70;;;0.90;;
34144;SDS011;69555;53.014;8.886;2024-02-23T13:42:57;3.30;;;0.90;;
34144;SDS011;69555;53.014;8.886;2024-02-23T13:45:24;6.00;;;0.93;;
34144;SDS011;69555;53.014;8.886;2024-02-23T13:47:59;4.45;;;0.95;;
34144;SDS011;69555;53.014;8.886;2024-02-23T13:50:27;5.03;;;1.33;;
34144;SDS011;69555;53.014;8.886;2024-02-23T13:52:54;3.78;;;2.08;;
34144;SDS011;69555;53.014;8.886;2024-02-23T13:55:21;1.88;;;0.73;;
34144;SDS011;69555;53.014;8.886;2024-02-23T13:57:48;1.75;;;0.52;;
34144;SDS011;69555;53.014;8.886;2024-02-23T14:00:16;4.53;;;1.20;;
34144;SDS011;69555;53.014;8.886;2024-02-23T14:02:43;3.42;;;1.00;;
34144;SDS011;69555;53.014;8.886;2024-02-23T14:05:11;3.60;;;1.25;;
34144;SDS011;69555;53.014;8.886;2024-02-23T14:07:38;2.47;;;0.68;;
34144;SDS011;69555;53.014;8.886;2024-02-23T14:10:03;6.85;;;1.17;;
34144;SDS011;69555;53.014;8.886;2024-02-23T14:12:31;5.55;;;0.90;;
34144;SDS011;69555;53.014;8.886;2024-02-23T14:14:57;3.35;;;0.68;;
34144;SDS011;69555;53.014;8.886;2024-02-23T14:17:24;2.97;;;0.75;;
34144;SDS011;69555;53.014;8.886;2024-02-23T14:19:51;1.65;;;0.63;;
34144;SDS011;69555;53.014;8.886;2024-02-23T14:22:17;5.28;;;0.90;;
34144;SDS011;69555;53.014;8.886;2024-02-23T14:24:43;1.48;;;0.70;;
34144;SDS011;69555;53.014;8.886;2024-02-23T14:27:10;2.05;;;0.47;;
34144;SDS011;69555;53.014;8.886;2024-02-23T14:29:37;4.35;;;0.90;;
34144;SDS011;69555;53.014;8.886;2024-02-23T14:32:03;4.25;;;0.70;;
34144;SDS011;69555;53.014;8.886;2024-02-23T14:34:30;2.97;;;1.02;;
34144;SDS011;69555;53.014;8.886;2024-02-23T14:36:59;2.50;;;1.02;;
34144;SDS011;69555;53.014;8.886;2024-02-23T14:39:26;3.05;;;0.73;;
34144;SDS011;69555;53.014;8.886;2024-02-23T14:41:53;4.50;;;0.93;;
34144;SDS011;69555;53.014;8.886;2024-02-23T14:44:20;2.85;;;0.80;;
34144;SDS011;69555;53.014;8.886;2024-02-23T14:46:47;3.63;;;0.85;;